Time;durP1;ratioP1;P1;durP2;ratioP2;P2;SDS_P1;SDS_P2;PMS_P1;PMS_P2;Temp;Humidity;BMP_temperature;BMP_pressure;BME280_temperature;BME280_humidity;BME280_pressure;Samples;Min_cycle;Max_cycle;Signal;HPM_P1;HPM_P2
2023/01/19 00:01:22;;;;;;;5.68;1.40;;;;;;;;;;5060073;28;20135;-71
2023/01/19 00:03:48;;;;;;;2.95;1.52;;;;;;;;;;5063373;28;20040;-70
2023/01/19 00:06:14;;;;;;;4.03;1.30;;;;;;;;;;5066766;28;20040;-70
2023/01/19 00:08:43;;;;;;;6.50;1.52;;;;;;;;;;5066887;28;20064;-70
2023/01/19 00:11:10;;;;;;;8.05;1.58;;;;;;;;;;5055274;28;20113;-70
2023/01/19 00:13:36;;;;;;;5.97;2.03;;;;;;;;;;5054326;28;20064;-70
2023/01/19 00:16:02;;;;;;;5.00;1.63;;;;;;;;;;5061730;28;20048;-70
2023/01/19 00:18:28;;;;;;;8.32;1.35;;;;;;;;;;5062811;28;20410;-70
2023/01/19 00:20:54;;;;;;;4.10;1.27;;;;;;;;;;5059701;28;20136;-70
2023/01/19 00:23:21;;;;;;;4.32;1.67;;;;;;;;;;5056793;28;20503;-70
2023/01/19 00:25:48;;;;;;;5.10;1.27;;;;;;;;;;5064595;28;20040;-71
2023/01/19 00:28:15;;;;;;;8.27;1.92;;;;;;;;;;5062891;28;20048;-70
2023/01/19 00:30:42;;;;;;;5.65;1.90;;;;;;;;;;5063894;28;20032;-70
2023/01/19 00:33:08;;;;;;;4.32;1.90;;;;;;;;;;5062094;28;20033;-70
2023/01/19 00:35:35;;;;;;;1.75;1.02;;;;;;;;;;5062464;28;20046;-70
2023/01/19 00:38:01;;;;;;;2.17;1.05;;;;;;;;;;5059542;28;20076;-72
2023/01/19 00:40:28;;;;;;;4.63;1.50;;;;;;;;;;5060113;28;20045;-70
2023/01/19 00:42:54;;;;;;;5.88;1.63;;;;;;;;;;5056015;28;20095;-70
2023/01/19 00:45:21;;;;;;;2.30;1.20;;;;;;;;;;5061101;28;20036;-70
2023/01/19 00:47:49;;;;;;;8.75;1.83;;;;;;;;;;5065206;28;20099;-70
2023/01/19 00:50:15;;;;;;;4.05;1.55;;;;;;;;;;5063769;28;20048;-72
2023/01/19 00:52:42;;;;;;;5.68;1.40;;;;;;;;;;5061126;28;20127;-70
2023/01/19 00:55:09;;;;;;;4.50;1.48;;;;;;;;;;5056419;28;20083;-71
2023/01/19 00:57:35;;;;;;;5.20;1.45;;;;;;;;;;5058216;28;20033;-70
2023/01/19 01:00:05;;;;;;;3.67;1.50;;;;;;;;;;5067500;28;20068;-71
2023/01/19 01:02:31;;;;;;;4.32;1.50;;;;;;;;;;5058155;28;20071;-70
2023/01/19 01:05:01;;;;;;;5.85;1.63;;;;;;;;;;5060966;28;20099;-68
2023/01/19 01:07:28;;;;;;;8.10;1.38;;;;;;;;;;5062249;28;20043;-71
2023/01/19 01:09:55;;;;;;;5.07;2.00;;;;;;;;;;5062617;28;20047;-71
2023/01/19 01:12:22;;;;;;;5.63;1.80;;;;;;;;;;5071650;28;20041;-70
2023/01/19 01:14:48;;;;;;;8.27;3.00;;;;;;;;;;5061556;28;20048;-70
2023/01/19 01:17:14;;;;;;;7.10;2.70;;;;;;;;;;5056281;28;20516;-70
2023/01/19 01:19:41;;;;;;;9.05;1.80;;;;;;;;;;5065989;28;20049;-70
2023/01/19 01:22:08;;;;;;;5.93;2.08;;;;;;;;;;5064080;28;20616;-70
2023/01/19 01:24:34;;;;;;;7.75;2.60;;;;;;;;;;5047686;28;20048;-70
2023/01/19 01:27:00;;;;;;;8.65;1.92;;;;;;;;;;5059263;28;20510;-70
2023/01/19 01:29:26;;;;;;;16.90;2.33;;;;;;;;;;5063486;28;20086;-70
2023/01/19 01:31:52;;;;;;;10.25;1.83;;;;;;;;;;5058669;28;20032;-70
2023/01/19 01:34:19;;;;;;;10.82;2.80;;;;;;;;;;5060057;28;20094;-70
2023/01/19 01:36:45;;;;;;;7.68;1.83;;;;;;;;;;5058537;28;20650;-71
2023/01/19 01:39:11;;;;;;;10.98;2.25;;;;;;;;;;5062726;28;20123;-71
2023/01/19 01:41:37;;;;;;;7.38;2.30;;;;;;;;;;5057772;28;20049;-70
2023/01/19 01:44:07;;;;;;;2.65;1.63;;;;;;;;;;5061839;28;20047;-70
2023/01/19 01:46:33;;;;;;;7.68;1.33;;;;;;;;;;5055954;28;20048;-70
2023/01/19 01:49:08;;;;;;;10.57;1.73;;;;;;;;;;5056617;28;20049;-70
2023/01/19 01:51:37;;;;;;;4.32;1.73;;;;;;;;;;5060083;28;20044;-70
2023/01/19 01:54:08;;;;;;;4.93;1.08;;;;;;;;;;5074669;28;20178;-70
2023/01/19 01:56:35;;;;;;;2.63;1.15;;;;;;;;;;5062806;28;20198;-69
2023/01/19 01:59:05;;;;;;;5.38;1.27;;;;;;;;;;5057043;28;20052;-70
2023/01/19 02:04:15;;;;;;;3.03;1.35;;;;;;;;;;5058933;28;20040;-70
2023/01/19 02:14:57;;;;;;;5.28;1.10;;;;;;;;;;5065282;28;20498;-70
2023/01/19 02:17:23;;;;;;;6.43;1.30;;;;;;;;;;5065827;28;20115;-70
2023/01/19 02:19:49;;;;;;;2.13;0.90;;;;;;;;;;5056958;28;20056;-71
2023/01/19 02:22:19;;;;;;;4.60;1.23;;;;;;;;;;5068343;28;20059;-70
2023/01/19 02:24:45;;;;;;;6.55;1.65;;;;;;;;;;5067397;28;20032;-70
2023/01/19 02:27:12;;;;;;;3.03;0.85;;;;;;;;;;5065437;28;20044;-70
2023/01/19 02:29:39;;;;;;;2.30;1.10;;;;;;;;;;5063034;28;20036;-70
2023/01/19 02:32:05;;;;;;;4.85;0.98;;;;;;;;;;5062638;28;20417;-70
2023/01/19 02:34:31;;;;;;;4.95;1.27;;;;;;;;;;5066879;28;20114;-70
2023/01/19 02:37:00;;;;;;;3.85;1.20;;;;;;;;;;5067386;28;20048;-70
2023/01/19 02:39:32;;;;;;;1.65;0.90;;;;;;;;;;5057241;28;20368;-70
2023/01/19 02:42:01;;;;;;;2.13;0.90;;;;;;;;;;5068175;28;20049;-70
2023/01/19 02:44:29;;;;;;;6.00;1.15;;;;;;;;;;5069439;28;20101;-70
2023/01/19 02:46:55;;;;;;;1.98;1.00;;;;;;;;;;5067806;28;20317;-71
2023/01/19 02:49:22;;;;;;;4.10;1.17;;;;;;;;;;5066572;28;20037;-71
2023/01/19 02:51:48;;;;;;;8.18;2.20;;;;;;;;;;5064550;28;20036;-70
2023/01/19 02:54:37;;;;;;;6.57;1.02;;;;;;;;;;5067948;28;20458;-70
2023/01/19 02:57:12;;;;;;;3.95;1.13;;;;;;;;;;5059562;28;20091;-69
2023/01/19 02:59:45;;;;;;;2.53;0.80;;;;;;;;;;5066663;28;20170;-70
2023/01/19 03:02:11;;;;;;;3.40;1.05;;;;;;;;;;5066673;28;20478;-70
2023/01/19 03:04:56;;;;;;;2.35;1.13;;;;;;;;;;5068851;28;20036;-69
2023/01/19 03:07:29;;;;;;;4.38;1.00;;;;;;;;;;5060243;28;20076;-70
2023/01/19 03:10:17;;;;;;;1.52;0.80;;;;;;;;;;5067677;28;20224;-69
2023/01/19 03:12:43;;;;;;;2.58;0.82;;;;;;;;;;5071420;28;20061;-70
2023/01/19 03:15:15;;;;;;;3.85;0.85;;;;;;;;;;5067570;28;20037;-69
2023/01/19 03:17:43;;;;;;;7.10;1.00;;;;;;;;;;5061598;28;20045;-70
2023/01/19 03:20:12;;;;;;;2.58;1.13;;;;;;;;;;5061499;28;20052;-70
2023/01/19 03:22:39;;;;;;;5.40;1.25;;;;;;;;;;5066975;28;20086;-69
2023/01/19 03:25:06;;;;;;;4.95;1.40;;;;;;;;;;5066152;28;20040;-70
2023/01/19 03:27:33;;;;;;;2.55;0.88;;;;;;;;;;5066296;28;20062;-70
2023/01/19 03:30:01;;;;;;;4.55;2.30;;;;;;;;;;5066324;28;20505;-70
2023/01/19 03:32:42;;;;;;;3.38;1.10;;;;;;;;;;5063125;28;20032;-70
2023/01/19 03:35:11;;;;;;;3.70;1.30;;;;;;;;;;5067812;28;20422;-70
2023/01/19 03:37:40;;;;;;;3.00;1.20;;;;;;;;;;5061227;28;20443;-70
2023/01/19 03:40:07;;;;;;;6.03;1.42;;;;;;;;;;5061057;28;20041;-70
2023/01/19 03:42:33;;;;;;;7.55;2.08;;;;;;;;;;5062890;28;20040;-69
2023/01/19 03:45:00;;;;;;;4.82;1.52;;;;;;;;;;5070501;28;20162;-70
2023/01/19 03:47:27;;;;;;;6.07;1.85;;;;;;;;;;5065349;28;20029;-70
2023/01/19 03:49:53;;;;;;;4.95;1.73;;;;;;;;;;5080276;28;20033;-69
2023/01/19 03:52:27;;;;;;;8.45;1.95;;;;;;;;;;5063968;28;20040;-69
2023/01/19 03:54:53;;;;;;;6.45;2.03;;;;;;;;;;5067413;28;20036;-70
2023/01/19 03:57:19;;;;;;;5.97;2.08;;;;;;;;;;5066487;28;20032;-70
2023/01/19 03:59:45;;;;;;;3.40;1.50;;;;;;;;;;5066198;28;20502;-70
2023/01/19 04:02:11;;;;;;;4.60;2.13;;;;;;;;;;5065760;28;20090;-70
2023/01/19 04:04:38;;;;;;;5.63;1.80;;;;;;;;;;5063104;28;20048;-70
2023/01/19 04:07:05;;;;;;;9.60;1.80;;;;;;;;;;5059083;28;20095;-70
2023/01/19 04:09:31;;;;;;;4.15;1.23;;;;;;;;;;5066411;28;20582;-69
2023/01/19 04:11:57;;;;;;;2.67;1.33;;;;;;;;;;5067763;28;20033;-70
2023/01/19 04:14:23;;;;;;;3.20;1.35;;;;;;;;;;5061242;28;20529;-69
2023/01/19 04:16:50;;;;;;;3.85;1.15;;;;;;;;;;5062842;28;20347;-70
2023/01/19 04:19:16;;;;;;;5.22;1.10;;;;;;;;;;5059473;28;20520;-70
2023/01/19 04:21:42;;;;;;;4.72;1.63;;;;;;;;;;5066274;28;20119;-69
2023/01/19 04:24:09;;;;;;;2.63;1.08;;;;;;;;;;5060514;28;20041;-70
2023/01/19 04:26:35;;;;;;;3.20;0.90;;;;;;;;;;5059590;28;20045;-70
2023/01/19 04:29:01;;;;;;;7.03;1.25;;;;;;;;;;5061662;28;20048;-70
2023/01/19 04:31:27;;;;;;;5.53;1.10;;;;;;;;;;5074295;28;20040;-70
2023/01/19 04:33:55;;;;;;;3.45;0.73;;;;;;;;;;5062753;28;20037;-70
2023/01/19 04:36:21;;;;;;;3.72;1.50;;;;;;;;;;5061643;28;20518;-70
2023/01/19 04:38:47;;;;;;;5.15;1.40;;;;;;;;;;5062061;28;20119;-70
2023/01/19 04:41:14;;;;;;;3.33;1.10;;;;;;;;;;5063942;28;20045;-69
2023/01/19 04:43:40;;;;;;;6.20;1.08;;;;;;;;;;5062466;28;20092;-69
2023/01/19 04:46:06;;;;;;;5.82;1.15;;;;;;;;;;5058454;28;20371;-70
2023/01/19 04:48:32;;;;;;;5.25;1.20;;;;;;;;;;5061099;28;20029;-69
2023/01/19 04:50:59;;;;;;;3.97;1.20;;;;;;;;;;5059620;28;20036;-70
2023/01/19 04:53:25;;;;;;;6.20;1.65;;;;;;;;;;5056866;28;20471;-70
2023/01/19 04:55:54;;;;;;;5.78;2.15;;;;;;;;;;5059556;28;20548;-70
2023/01/19 04:58:20;;;;;;;2.80;1.40;;;;;;;;;;5065849;28;20041;-70
2023/01/19 05:00:47;;;;;;;6.45;2.05;;;;;;;;;;5054963;28;20044;-70
2023/01/19 05:03:13;;;;;;;6.57;1.77;;;;;;;;;;5057285;28;20082;-69
2023/01/19 05:05:39;;;;;;;11.00;1.80;;;;;;;;;;5066195;28;20118;-70
2023/01/19 05:08:05;;;;;;;5.13;1.33;;;;;;;;;;5063460;28;20036;-69
2023/01/19 05:10:31;;;;;;;4.50;1.40;;;;;;;;;;5067399;28;20116;-70
2023/01/19 05:12:57;;;;;;;4.40;2.00;;;;;;;;;;5057046;28;20490;-70
2023/01/19 05:15:24;;;;;;;4.45;1.70;;;;;;;;;;5067212;28;20127;-69
2023/01/19 05:17:50;;;;;;;5.65;2.00;;;;;;;;;;5063448;28;20303;-70
2023/01/19 05:20:16;;;;;;;4.75;1.80;;;;;;;;;;5057782;28;20159;-70
2023/01/19 05:22:42;;;;;;;4.63;1.63;;;;;;;;;;5056056;28;20041;-70
2023/01/19 05:25:09;;;;;;;4.47;2.00;;;;;;;;;;5062311;28;20044;-70
2023/01/19 05:27:35;;;;;;;7.55;2.13;;;;;;;;;;5050992;28;20063;-70
2023/01/19 05:30:03;;;;;;;12.02;2.10;;;;;;;;;;5054800;28;20395;-70
2023/01/19 05:32:30;;;;;;;6.85;1.70;;;;;;;;;;5060561;28;20036;-70
2023/01/19 05:34:56;;;;;;;10.35;2.28;;;;;;;;;;5060918;28;20414;-70
2023/01/19 05:37:22;;;;;;;7.57;2.00;;;;;;;;;;5058556;28;20033;-69
2023/01/19 05:39:48;;;;;;;4.70;1.38;;;;;;;;;;5056369;28;20094;-70
2023/01/19 05:42:14;;;;;;;7.97;1.65;;;;;;;;;;5075287;28;20049;-71
2023/01/19 05:44:40;;;;;;;5.63;1.95;;;;;;;;;;5047720;28;20041;-71
2023/01/19 05:47:06;;;;;;;3.65;1.27;;;;;;;;;;5066231;28;20049;-70
2023/01/19 05:49:34;;;;;;;9.88;2.38;;;;;;;;;;5032382;28;20080;-70
2023/01/19 05:52:00;;;;;;;9.57;2.00;;;;;;;;;;5053704;28;20509;-71
2023/01/19 05:54:26;;;;;;;14.15;2.00;;;;;;;;;;5050185;28;20512;-70
2023/01/19 05:56:52;;;;;;;4.97;1.60;;;;;;;;;;5054915;28;20522;-70
2023/01/19 05:59:22;;;;;;;5.75;2.17;;;;;;;;;;5047404;28;20041;-70
2023/01/19 06:01:50;;;;;;;7.68;2.20;;;;;;;;;;5062623;28;20103;-70
2023/01/19 06:04:16;;;;;;;5.00;1.63;;;;;;;;;;5051155;28;20037;-70
2023/01/19 06:06:42;;;;;;;7.55;1.98;;;;;;;;;;5053013;28;20055;-70
2023/01/19 06:09:08;;;;;;;4.25;1.80;;;;;;;;;;5052263;28;20076;-70
2023/01/19 06:11:34;;;;;;;6.57;1.83;;;;;;;;;;5054105;28;20503;-70
2023/01/19 06:14:02;;;;;;;8.90;2.22;;;;;;;;;;5050360;28;21300;-70
2023/01/19 06:16:28;;;;;;;9.27;2.50;;;;;;;;;;5051909;28;20156;-70
2023/01/19 06:18:54;;;;;;;6.55;3.25;;;;;;;;;;5054488;28;20125;-71
2023/01/19 06:21:21;;;;;;;12.45;2.50;;;;;;;;;;5050790;28;20040;-69
2023/01/19 06:23:47;;;;;;;11.75;2.75;;;;;;;;;;5051389;28;20051;-70
2023/01/19 06:26:13;;;;;;;10.25;3.10;;;;;;;;;;5055666;28;20573;-71
2023/01/19 06:28:39;;;;;;;6.10;2.20;;;;;;;;;;5056146;28;20734;-70
2023/01/19 06:31:05;;;;;;;7.15;3.38;;;;;;;;;;5059470;28;20064;-70
2023/01/19 06:33:31;;;;;;;8.05;2.33;;;;;;;;;;5060857;28;20541;-70
2023/01/19 06:35:57;;;;;;;5.90;2.45;;;;;;;;;;5062864;28;20080;-70
2023/01/19 06:38:24;;;;;;;10.13;2.42;;;;;;;;;;5052507;28;20041;-70
2023/01/19 06:40:54;;;;;;;10.02;2.60;;;;;;;;;;5055855;28;20124;-69
2023/01/19 06:43:20;;;;;;;19.90;2.78;;;;;;;;;;5059677;28;20183;-70
2023/01/19 06:45:47;;;;;;;8.63;2.97;;;;;;;;;;5055600;28;20172;-69
2023/01/19 06:48:13;;;;;;;9.10;3.00;;;;;;;;;;5057883;28;20079;-70
2023/01/19 06:50:39;;;;;;;6.72;2.72;;;;;;;;;;5058477;28;20036;-70
2023/01/19 06:53:05;;;;;;;14.30;3.35;;;;;;;;;;5064056;28;20198;-70
2023/01/19 06:55:34;;;;;;;11.07;2.80;;;;;;;;;;5061537;28;20036;-70
2023/01/19 06:58:00;;;;;;;4.60;2.72;;;;;;;;;;5053160;28;20051;-70
2023/01/19 07:00:27;;;;;;;7.38;2.92;;;;;;;;;;5057251;28;20402;-70
2023/01/19 07:02:53;;;;;;;8.02;2.72;;;;;;;;;;5057828;28;20051;-69
2023/01/19 07:05:20;;;;;;;7.30;2.90;;;;;;;;;;5059807;28;20063;-70
2023/01/19 07:07:56;;;;;;;5.90;2.45;;;;;;;;;;5060308;28;20044;-70
2023/01/19 07:10:23;;;;;;;11.30;3.67;;;;;;;;;;5055937;28;20093;-70
2023/01/19 07:12:50;;;;;;;7.88;2.88;;;;;;;;;;5054208;28;20306;-70
2023/01/19 07:15:18;;;;;;;19.23;3.17;;;;;;;;;;5063712;28;20078;-70
2023/01/19 07:17:45;;;;;;;10.90;3.00;;;;;;;;;;5060660;28;20041;-70
2023/01/19 07:20:13;;;;;;;12.77;3.45;;;;;;;;;;5061707;28;20040;-70
2023/01/19 07:22:40;;;;;;;11.85;2.75;;;;;;;;;;5055739;28;20258;-70
2023/01/19 07:25:06;;;;;;;11.40;3.00;;;;;;;;;;5059521;28;20068;-71
2023/01/19 07:27:32;;;;;;;15.98;4.53;;;;;;;;;;5058595;28;20037;-70
2023/01/19 07:30:00;;;;;;;11.20;2.75;;;;;;;;;;5056880;28;20045;-70
2023/01/19 07:32:26;;;;;;;15.50;3.42;;;;;;;;;;5064262;28;20567;-71
2023/01/19 07:34:53;;;;;;;8.93;2.70;;;;;;;;;;5066402;28;20502;-71
2023/01/19 07:37:19;;;;;;;8.07;3.42;;;;;;;;;;5067720;28;20044;-70
2023/01/19 07:39:45;;;;;;;7.53;2.65;;;;;;;;;;5066375;28;20126;-70
2023/01/19 07:42:11;;;;;;;6.18;2.28;;;;;;;;;;5062277;28;20082;-70
2023/01/19 07:44:37;;;;;;;12.43;3.83;;;;;;;;;;5061553;28;20435;-70
2023/01/19 07:47:06;;;;;;;17.02;3.17;;;;;;;;;;5060696;28;20459;-70
2023/01/19 07:49:32;;;;;;;8.05;2.63;;;;;;;;;;5067583;28;20382;-70
2023/01/19 07:51:58;;;;;;;14.25;3.20;;;;;;;;;;5068542;28;20032;-69
2023/01/19 07:54:24;;;;;;;8.75;2.63;;;;;;;;;;5059800;28;20025;-70
2023/01/19 07:56:53;;;;;;;10.90;2.67;;;;;;;;;;5062692;28;20050;-70
2023/01/19 07:59:20;;;;;;;10.65;3.38;;;;;;;;;;5054456;28;20045;-70
2023/01/19 08:01:46;;;;;;;12.10;3.85;;;;;;;;;;5061247;28;20068;-70
2023/01/19 08:04:12;;;;;;;25.10;4.22;;;;;;;;;;5064670;28;20090;-70
2023/01/19 08:06:39;;;;;;;11.52;3.63;;;;;;;;;;5057508;28;20040;-70
2023/01/19 08:09:06;;;;;;;19.25;4.53;;;;;;;;;;5062878;28;20040;-70
2023/01/19 08:11:32;;;;;;;14.60;3.55;;;;;;;;;;5055244;28;20049;-70
2023/01/19 08:13:59;;;;;;;13.40;3.20;;;;;;;;;;5058869;28;20506;-70
2023/01/19 08:16:26;;;;;;;11.13;4.38;;;;;;;;;;5060903;28;20411;-70
2023/01/19 08:18:53;;;;;;;15.07;3.78;;;;;;;;;;5061839;28;20533;-70
2023/01/19 08:21:19;;;;;;;12.02;4.80;;;;;;;;;;5054301;28;20037;-70
2023/01/19 08:23:51;;;;;;;11.48;4.15;;;;;;;;;;5055258;28;20123;-70
2023/01/19 08:26:26;;;;;;;12.57;3.85;;;;;;;;;;5062030;28;20518;-70
2023/01/19 08:28:53;;;;;;;12.18;4.05;;;;;;;;;;5064618;28;20041;-70
2023/01/19 08:31:20;;;;;;;18.60;3.92;;;;;;;;;;5059590;28;20073;-70
2023/01/19 08:33:46;;;;;;;10.45;4.10;;;;;;;;;;5065076;28;20421;-70
2023/01/19 08:36:12;;;;;;;16.80;4.15;;;;;;;;;;5061881;28;20036;-70
2023/01/19 08:38:42;;;;;;;13.70;4.53;;;;;;;;;;5060794;28;20032;-70
2023/01/19 08:41:08;;;;;;;20.48;4.50;;;;;;;;;;5055037;28;20502;-70
2023/01/19 08:43:34;;;;;;;13.63;3.20;;;;;;;;;;5056014;28;20029;-70
2023/01/19 08:46:02;;;;;;;13.15;2.83;;;;;;;;;;5065205;28;20478;-70
2023/01/19 08:48:28;;;;;;;8.68;3.13;;;;;;;;;;5067406;28;20036;-70
2023/01/19 08:50:54;;;;;;;11.35;4.28;;;;;;;;;;5058060;28;20367;-70
2023/01/19 08:53:22;;;;;;;11.93;3.30;;;;;;;;;;5055373;28;20466;-70
2023/01/19 08:55:48;;;;;;;11.57;3.83;;;;;;;;;;5058462;28;20135;-70
2023/01/19 08:58:15;;;;;;;15.55;4.28;;;;;;;;;;5057977;28;20049;-70
2023/01/19 09:00:41;;;;;;;8.77;2.85;;;;;;;;;;5059017;28;20167;-70
2023/01/19 09:03:10;;;;;;;15.45;3.72;;;;;;;;;;5058834;28;20671;-70
2023/01/19 09:05:37;;;;;;;7.13;3.33;;;;;;;;;;5058331;28;20475;-72
2023/01/19 09:08:07;;;;;;;9.82;2.88;;;;;;;;;;5057052;28;20521;-71
2023/01/19 09:10:36;;;;;;;8.02;2.10;;;;;;;;;;5055316;28;20575;-71
2023/01/19 09:13:03;;;;;;;10.70;2.13;;;;;;;;;;5059522;28;20044;-71
2023/01/19 09:15:32;;;;;;;8.95;2.55;;;;;;;;;;5059974;28;20040;-71
2023/01/19 09:17:59;;;;;;;9.07;2.42;;;;;;;;;;5051496;28;20391;-71
2023/01/19 09:20:25;;;;;;;4.75;1.38;;;;;;;;;;5053089;28;20056;-69
2023/01/19 09:22:51;;;;;;;7.72;2.25;;;;;;;;;;5062808;28;20197;-71
2023/01/19 09:25:18;;;;;;;3.53;1.63;;;;;;;;;;5060144;28;20040;-70
2023/01/19 09:27:44;;;;;;;9.48;3.25;;;;;;;;;;5056530;28;20243;-70
2023/01/19 09:30:10;;;;;;;5.63;1.63;;;;;;;;;;5065975;28;20036;-71
2023/01/19 09:32:36;;;;;;;5.47;1.85;;;;;;;;;;5066610;28;20029;-71
2023/01/19 09:35:03;;;;;;;11.02;2.50;;;;;;;;;;5057470;28;20046;-71
2023/01/19 09:37:29;;;;;;;5.82;2.25;;;;;;;;;;5061724;28;20029;-71
2023/01/19 09:39:55;;;;;;;12.65;2.47;;;;;;;;;;5060710;28;20063;-70
2023/01/19 09:42:44;;;;;;;5.68;2.15;;;;;;;;;;5061020;28;20037;-71
2023/01/19 09:45:33;;;;;;;7.75;2.53;;;;;;;;;;5054175;28;20048;-71
2023/01/19 09:48:00;;;;;;;8.75;2.65;;;;;;;;;;5054901;28;20113;-71
2023/01/19 09:50:28;;;;;;;5.22;2.03;;;;;;;;;;5062067;28;20421;-71
2023/01/19 09:52:56;;;;;;;8.73;2.42;;;;;;;;;;5060229;28;20395;-71
2023/01/19 09:55:25;;;;;;;18.05;3.00;;;;;;;;;;5059702;28;20041;-70
2023/01/19 09:57:52;;;;;;;10.20;2.40;;;;;;;;;;5058684;28;20039;-71
2023/01/19 10:00:18;;;;;;;6.72;2.65;;;;;;;;;;5057734;28;20039;-71
2023/01/19 10:03:05;;;;;;;9.43;2.45;;;;;;;;;;5059105;28;20064;-70
2023/01/19 10:05:34;;;;;;;10.70;3.10;;;;;;;;;;5054299;28;20040;-70
2023/01/19 10:08:02;;;;;;;10.13;1.92;;;;;;;;;;5079022;28;20120;-71
2023/01/19 10:10:30;;;;;;;13.05;3.22;;;;;;;;;;5057560;28;20478;-71
2023/01/19 10:13:15;;;;;;;9.38;2.65;;;;;;;;;;5055399;28;20112;-70
2023/01/19 10:16:00;;;;;;;10.82;2.85;;;;;;;;;;5071350;28;20413;-71
2023/01/19 10:18:42;;;;;;;13.52;2.97;;;;;;;;;;5057551;28;20087;-71
2023/01/19 10:21:11;;;;;;;11.27;3.42;;;;;;;;;;5059778;28;20558;-71
2023/01/19 10:23:46;;;;;;;6.97;2.13;;;;;;;;;;5061426;28;20051;-71
2023/01/19 10:26:15;;;;;;;12.45;2.65;;;;;;;;;;5061703;28;20825;-71
2023/01/19 10:28:41;;;;;;;8.65;1.95;;;;;;;;;;5060151;28;20040;-71
2023/01/19 10:31:08;;;;;;;8.23;2.15;;;;;;;;;;5057656;28;20041;-71
2023/01/19 10:33:35;;;;;;;3.83;1.88;;;;;;;;;;5068395;28;20470;-71
2023/01/19 10:36:15;;;;;;;5.95;2.03;;;;;;;;;;5061196;28;20079;-70
2023/01/19 10:38:42;;;;;;;7.75;2.72;;;;;;;;;;5052634;28;20116;-71
2023/01/19 10:41:12;;;;;;;7.30;2.28;;;;;;;;;;5063627;28;20079;-71
2023/01/19 10:43:40;;;;;;;10.05;2.17;;;;;;;;;;5062821;28;20581;-71
2023/01/19 10:46:18;;;;;;;3.28;1.77;;;;;;;;;;5058754;28;20490;-70
2023/01/19 10:48:47;;;;;;;10.70;2.55;;;;;;;;;;5057280;28;20494;-71
2023/01/19 10:51:13;;;;;;;10.25;2.03;;;;;;;;;;5061979;28;20116;-71
2023/01/19 10:53:40;;;;;;;7.55;1.88;;;;;;;;;;5075680;28;20041;-71
2023/01/19 10:56:36;;;;;;;5.82;1.60;;;;;;;;;;5060702;28;20418;-72
2023/01/19 10:59:03;;;;;;;8.55;1.95;;;;;;;;;;5058046;28;20110;-71
2023/01/19 11:01:30;;;;;;;8.30;1.80;;;;;;;;;;5063294;28;20040;-71
2023/01/19 11:04:04;;;;;;;6.38;1.63;;;;;;;;;;5058476;28;20048;-71
2023/01/19 11:06:31;;;;;;;10.40;2.55;;;9.20;99.90;;;;;;5064658;28;20108;-71
2023/01/19 11:09:16;;;;;;;7.95;2.50;;;;;;;;;;5062530;28;20033;-71
2023/01/19 11:11:52;;;;;;;8.63;1.80;;;;;;;;;;5066541;28;20064;-71
2023/01/19 11:14:22;;;;;;;4.15;1.58;;;;;;;;;;5062962;28;20118;-71
2023/01/19 11:16:54;;;;;;;4.13;1.45;;;;;;;;;;5065781;28;20048;-71
2023/01/19 11:19:24;;;;;;;10.88;2.15;;;;;;;;;;5061832;28;20094;-71
2023/01/19 11:21:50;;;;;;;5.68;2.10;;;6.00;99.90;;;;;;5063404;28;20218;-71
2023/01/19 11:24:16;;;;;;;7.43;1.80;;;;;;;;;;5059462;28;20106;-71
2023/01/19 11:26:42;;;;;;;7.07;2.83;;;;;;;;;;5055613;28;20124;-72
2023/01/19 11:29:16;;;;;;;6.80;1.77;;;;;;;;;;5062113;28;20115;-71
2023/01/19 11:31:43;;;;;;;7.05;1.85;;;;;;;;;;5061765;28;20436;-71
2023/01/19 11:34:26;;;;;;;5.72;2.35;;;;;;;;;;5065150;28;20051;-71
2023/01/19 11:37:00;;;;;;;18.20;3.25;;;;;;;;;;5059619;28;20051;-71
2023/01/19 11:39:28;;;;;;;5.90;1.90;;;;;;;;;;5058812;28;20083;-71
2023/01/19 11:41:56;;;;;;;5.82;2.38;;;;;;;;;;5064486;28;20044;-71
2023/01/19 11:44:24;;;;;;;4.30;1.55;;;;;;;;;;5066292;28;20048;-71
2023/01/19 11:46:55;;;;;;;7.05;2.53;;;;;;;;;;5062912;28;20606;-72
2023/01/19 11:49:25;;;;;;;5.80;1.65;;;;;;;;;;5057919;28;20248;-71
2023/01/19 11:51:51;;;;;;;3.33;1.17;;;;;;;;;;5060465;28;20521;-71
2023/01/19 11:54:24;;;;;;;5.13;1.58;;;6.50;99.90;;;;;;5055893;28;20041;-71
2023/01/19 11:56:52;;;;;;;3.97;1.27;;;10.20;99.90;;;;;;5059621;28;20043;-71
2023/01/19 11:59:20;;;;;;;7.82;2.20;;;10.30;99.90;;;;;;5067359;28;20024;-71
2023/01/19 12:01:55;;;;;;;4.80;1.73;;;10.30;99.90;;;;;;5068047;28;20098;-71
2023/01/19 12:04:35;;;;;;;5.60;2.08;;;9.80;99.80;;;;;;5061271;28;20291;-71
2023/01/19 12:07:06;;;;;;;4.72;1.60;;;;;;;;;;5057091;28;20516;-71
2023/01/19 12:09:49;;;;;;;9.20;1.83;;;;;;;;;;5066610;28;20040;-71
2023/01/19 12:12:35;;;;;;;6.55;2.00;;;9.40;99.90;;;;;;5065242;28;20456;-71
2023/01/19 12:15:21;;;;;;;8.05;1.88;;;;;;;;;;5067403;28;20049;-71
2023/01/19 12:17:52;;;;;;;7.78;2.28;;;;;;;;;;5058901;28;20041;-71
2023/01/19 12:20:21;;;;;;;5.35;1.42;;;;;;;;;;5060174;28;20046;-70
2023/01/19 12:22:51;;;;;;;5.95;1.83;;;;;;;;;;5073171;28;20051;-71
2023/01/19 12:25:26;;;;;;;9.15;1.98;;;;;;;;;;5063574;28;20119;-70
2023/01/19 12:27:53;;;;;;;3.80;1.73;;;;;;;;;;5067687;28;20028;-71
2023/01/19 12:30:21;;;;;;;5.90;1.98;;;;;;;;;;5056625;28;20083;-70
2023/01/19 12:32:47;;;;;;;13.40;1.92;;;;;;;;;;5055865;28;20037;-71
2023/01/19 12:35:51;;;;;;;8.38;1.92;;;8.20;99.90;;;;;;5067023;28;20646;-71
2023/01/19 12:38:17;;;;;;;;;;;;;;;;;;5065137;28;20045;-71
2023/01/19 12:40:43;;;;;;;8.18;1.80;;;;;;;;;;5059428;28;20408;-71
2023/01/19 12:43:14;;;;;;;3.45;1.88;;;;;;;;;;5060464;28;20064;-71
2023/01/19 12:45:40;;;;;;;6.40;2.83;;;;;;;;;;5064814;28;20124;-71
2023/01/19 12:48:23;;;;;;;7.60;1.60;;;;;;;;;;5061571;28;20036;-72
2023/01/19 12:50:49;;;;;;;6.45;1.70;;;;;;;;;;5056396;28;20043;-71
2023/01/19 12:53:17;;;;;;;4.80;1.75;;;;;;;;;;5065736;28;20071;-71
2023/01/19 12:55:46;;;;;;;10.02;2.15;;;;;;;;;;5062939;28;20074;-71
2023/01/19 12:58:12;;;;;;;8.60;2.17;;;;;;;;;;5063450;28;20446;-71
2023/01/19 13:00:39;;;;;;;12.77;2.22;;;;;;;;;;5057886;28;20044;-71
2023/01/19 13:03:25;;;;;;;5.63;2.20;;;;;;;;;;5063240;28;20490;-71
2023/01/19 13:05:53;;;;;;;5.05;1.83;;;;;;;;;;5066935;28;20052;-71
2023/01/19 13:08:21;;;;;;;11.70;2.35;;;;;;;;;;5057954;28;20419;-71
2023/01/19 13:11:03;;;;;;;5.82;1.33;;;;;;;;;;5064598;28;20494;-70
2023/01/19 13:13:31;;;;;;;4.28;1.42;;;;;;;;;;5061846;28;20079;-70
2023/01/19 13:16:21;;;;;;;7.50;2.17;;;;;;;;;;5058139;28;20091;-70
2023/01/19 13:18:52;;;;;;;5.32;1.58;;;;;;;;;;5065650;28;20101;-71
2023/01/19 13:21:29;;;;;;;4.53;1.50;;;;;;;;;;5054748;28;20036;-72
2023/01/19 13:23:57;;;;;;;12.13;1.70;;;;;;;;;;5062558;28;20052;-71
2023/01/19 13:26:46;;;;;;;6.63;1.80;;;;;;;;;;5061385;28;20048;-71
2023/01/19 13:29:24;;;;;;;3.42;1.63;;;;;;;;;;5058861;28;20045;-70
2023/01/19 13:32:01;;;;;;;5.10;1.75;;;;;;;;;;5066273;28;20364;-70
2023/01/19 13:34:27;;;;;;;4.80;1.80;;;;;;;;;;5051881;28;20037;-69
2023/01/19 13:36:55;;;;;;;4.32;1.80;;;;;;;;;;5060468;28;20048;-70
2023/01/19 13:39:24;;;;;;;1.35;1.00;;;;;;;;;;5059548;28;20044;-70
2023/01/19 13:41:52;;;;;;;8.90;1.70;;;;;;;;;;5057749;28;20044;-70
2023/01/19 13:44:24;;;;;;;3.95;1.27;;;6.60;99.90;;;;;;5056228;28;20105;-70
2023/01/19 13:46:51;;;;;;;4.70;1.52;;;;;;;;;;5060449;28;20095;-70
2023/01/19 13:49:17;;;;;;;7.50;1.20;;;;;;;;;;5054280;28;20036;-70
2023/01/19 13:51:44;;;;;;;4.93;1.55;;;;;;;;;;5059730;28;20127;-69
2023/01/19 13:54:16;;;;;;;4.13;1.27;;;;;;;;;;5061060;28;20190;-70
2023/01/19 13:56:49;;;;;;;5.32;1.48;;;;;;;;;;5038394;28;20075;-70
2023/01/19 13:59:15;;;;;;;3.38;1.33;;;;;;;;;;5056272;28;20044;-71
2023/01/19 14:01:42;;;;;;;2.85;1.00;;;;;;;;;;5074516;28;20037;-70
2023/01/19 14:04:25;;;;;;;4.03;1.60;;;;;;;;;;5058004;28;20518;-71
2023/01/19 14:06:54;;;;;;;6.18;1.80;;;;;;;;;;5058774;28;20450;-71
2023/01/19 14:09:21;;;;;;;4.32;2.13;;;;;;;;;;5061394;28;20119;-70
2023/01/19 14:12:04;;;;;;;3.42;1.65;;;;;;;;;;5059559;28;20449;-72
2023/01/19 14:14:30;;;;;;;3.50;1.58;;;;;;;;;;5064060;28;20460;-70
2023/01/19 14:16:56;;;;;;;7.75;1.80;;;;;;;;;;5062391;28;20041;-71
2023/01/19 14:19:22;;;;;;;5.07;1.80;;;;;;;;;;5065677;28;20036;-71
2023/01/19 14:22:02;;;;;;;7.00;2.00;;;7.70;99.90;;;;;;5055906;28;20063;-71
2023/01/19 14:24:31;;;;;;;4.25;1.75;;;;;;;;;;5059930;28;20060;-70
2023/01/19 14:27:18;;;;;;;6.30;1.95;;;;;;;;;;5069094;28;20044;-71
2023/01/19 14:29:46;;;;;;;5.28;1.80;;;;;;;;;;5058670;28;20056;-70
2023/01/19 14:32:12;;;;;;;7.63;2.58;;;;;;;;;;5062287;28;20494;-70
2023/01/19 14:34:43;;;;;;;9.65;1.67;;;;;;;;;;5069473;28;20116;-71
2023/01/19 14:37:22;;;;;;;7.93;1.83;;;;;;;;;;5061067;28;20045;-71
2023/01/19 14:40:04;;;;;;;9.57;2.28;;;;;;;;;;5061480;28;20049;-71
2023/01/19 14:42:32;;;;;;;5.10;1.52;;;;;;;;;;5062715;28;20044;-70
2023/01/19 14:45:00;;;;;;;4.10;1.23;;;;;;;;;;5064416;28;20061;-70
2023/01/19 14:47:34;;;;;;;5.75;1.50;;;;;;;;;;5070095;28;20052;-70
2023/01/19 14:50:21;;;;;;;3.88;1.45;;;;;;;;;;5067483;28;20146;-71
2023/01/19 14:53:06;;;;;;;5.57;1.80;;;;;;;;;;5063972;28;20045;-71
2023/01/19 14:55:49;;;;;;;6.15;1.30;;;;;;;;;;5065144;28;20040;-71
2023/01/19 14:58:16;;;;;;;3.28;1.45;;;;;;;;;;5066648;28;20036;-71